LFRG/DOL METAR and TAF weather

Enter ICAO airport designator
Station Type Date Time Source
LFRG METAR 2020/01/27 17:00 UTC NOAA

LFRG 271700Z AUTO 21014KT 190V250 9999 OVC022 08/06 Q0999 TEMPO SHRA BKN015TCU


Station Type Date Time Source
LFRG Decoded METAR 2020/01/27 17:00 UTC NOAA

Station name not available
Jan 27, 2020 - 12:00 PM EST / 2020.01.27 1700 UTC
Wind: from the SSW (210 degrees) at 16 MPH (14 KT) (direction variable):0
Visibility: greater than 7 mile(s):0
Sky conditions: overcast
Weather: Towering cumulus clouds observed
Temperature: 46 F (8 C)
Dew Point: 42 F (6 C)
Relative Humidity: 87%
Pressure (altimeter): 29.50 in. Hg (0999 hPa)
ob: LFRG 271700Z AUTO 21014KT 190V250 9999 OVC022 08/06 Q0999 TEMPO SHRA BKN015TCU
cycle: 17

Station Type Date Time Source
LFRG TAF 2014/12/22 18:42 UTC NOAA

TAF
AMD TAF
AMD LFRG 221837Z 2218/2221 25015KT 9999 OVC015
TEMPO 2218/2221 BKN007 PROB30
TEMPO 2218/2221 25015G25KT 4000 DZ BKN003

Example: see airport list